Time;durP1;ratioP1;P1;durP2;ratioP2;P2;SDS_P1;SDS_P2;PMS_P1;PMS_P2;Temp;Humidity;BMP_temperature;BMP_pressure;BME280_temperature;BME280_humidity;BME280_pressure;Samples;Min_cycle;Max_cycle;Signal;HPM_P1;HPM_P2
2022/08/20 00:00:12;;;;;;;23.48;21.77;;;;;;;-141.02;60.91;81053.91;5155231;27;20282;-76
2022/08/20 00:02:41;;;;;;;23.52;21.83;;;;;;;-141.02;61.12;81018.97;5155250;27;20180;-80
2022/08/20 00:05:09;;;;;;;23.83;22.13;;;;;;;-141.02;61.21;81022.84;5155594;27;20224;-78
2022/08/20 00:07:36;;;;;;;23.75;22.05;;;;;;;-141.02;61.40;81046.13;5155117;27;20235;-78
2022/08/20 00:10:05;;;;;;;23.55;21.85;;;;;;;-141.02;61.42;80954.91;5155108;27;20234;-82
2022/08/20 00:12:32;;;;;;;23.30;21.60;;;;;;;-141.02;61.58;81077.22;5154960;27;20199;-77
2022/08/20 00:15:01;;;;;;;22.65;20.95;;;;;;;-141.02;61.76;81026.72;5155165;27;20692;-76
2022/08/20 00:17:31;;;;;;;22.98;21.27;;;;;;;-141.02;62.13;81075.25;5154806;27;20650;-78
2022/08/20 00:19:58;;;;;;;23.13;21.42;;;;;;;-141.02;62.41;81084.97;5154791;27;20290;-80
2022/08/20 00:22:26;;;;;;;23.00;21.30;;;;;;;-141.02;62.56;81081.09;5155150;27;20261;-79
2022/08/20 00:24:53;;;;;;;23.30;21.60;;;;;;;-141.02;62.52;81071.38;5154834;27;20685;-77
2022/08/20 00:27:20;;;;;;;23.45;21.75;;;;;;;-141.02;62.82;81098.56;5154708;27;20321;-79
2022/08/20 00:29:47;;;;;;;23.40;21.70;;;;;;;-141.02;62.82;81116.03;5154721;27;20722;-82
2022/08/20 00:32:16;;;;;;;23.60;21.80;;;;;;;-141.02;62.80;81077.22;5154854;27;20283;-79
2022/08/20 00:34:43;;;;;;;23.08;21.38;;;;;;;-141.02;62.89;81117.97;5154864;27;20235;-77
2022/08/20 00:37:10;;;;;;;23.85;22.15;;;;;;;-141.02;62.72;81038.38;5155154;27;20260;-79
2022/08/20 00:39:37;;;;;;;24.00;22.20;;;;;;;-141.02;62.83;81086.91;5154501;27;20195;-80
2022/08/20 00:42:05;;;;;;;24.45;22.55;;;;;;;-141.02;62.94;81079.16;5155282;27;20231;-78
2022/08/20 00:44:32;;;;;;;23.50;21.80;;;;;;;-141.02;62.98;81112.16;5154333;27;20192;-78
2022/08/20 00:46:59;;;;;;;23.40;21.70;;;;;;;-141.02;62.86;81123.81;5154643;27;20199;-78
2022/08/20 00:49:30;;;;;;;23.48;21.77;;;;;;;-141.02;62.95;81071.38;5154624;27;20252;-78
2022/08/20 00:52:01;;;;;;;24.00;22.20;;;;;;;-141.02;62.91;81106.31;5154309;27;20611;-80
2022/08/20 00:54:31;;;;;;;24.00;22.20;;;;;;;-141.02;63.14;81081.09;5154291;27;20275;-80
2022/08/20 00:57:02;;;;;;;23.98;22.20;;;;;;;-141.02;63.10;81119.91;5154514;27;20192;-79
2022/08/20 00:59:32;;;;;;;23.65;21.92;;;;;;;-141.02;63.28;81108.28;5154601;27;20256;-77
2022/08/20 01:02:02;;;;;;;23.42;21.73;;;;;;;-141.02;63.28;81067.50;5154485;27;20611;-74
2022/08/20 01:04:33;;;;;;;23.45;21.75;;;;;;;-141.02;63.37;81106.31;5154283;27;20233;-80
2022/08/20 01:07:01;;;;;;;23.67;21.98;;;;;;;-141.02;63.26;81106.31;5154146;27;20711;-77
2022/08/20 01:09:29;;;;;;;23.60;21.90;;;;;;;-141.02;63.34;81141.28;5152985;27;20278;-78
2022/08/20 01:11:56;;;;;;;23.70;22.00;;;;;;;-141.02;63.88;81121.84;5153948;27;20227;-79
2022/08/20 01:14:27;;;;;;;23.05;21.35;;;;;;;-141.02;64.09;81139.34;5154156;27;20248;-76
2022/08/20 01:16:58;;;;;;;23.50;21.80;;;;;;;-141.02;64.11;81116.03;5153795;27;20711;-77
2022/08/20 01:19:33;;;;;;;23.83;22.02;;;;;;;-141.02;64.16;81180.09;5154157;27;20195;-77
2022/08/20 01:23:25;;;;;;;24.08;22.27;;;;;;;-141.02;64.48;81123.81;5154482;27;20250;-78
2022/08/20 01:24:53;;;;;;;24.17;22.38;;;;;;;-141.02;64.56;81001.50;5154000;27;20190;-77
2022/08/20 01:27:23;;;;;;;24.65;22.85;;;;;;;-141.02;64.71;81127.69;5154121;27;20191;-77
2022/08/20 01:29:51;;;;;;;23.55;21.85;;;;;;;-141.02;64.69;81131.56;5154027;27;20191;-79
2022/08/20 01:32:19;;;;;;;23.52;21.83;;;;;;;-141.02;64.85;81168.44;5153486;27;20203;-77
2022/08/20 01:34:46;;;;;;;23.55;21.85;;;;;;;-141.02;64.95;81150.97;5153587;27;20191;-77
2022/08/20 01:37:13;;;;;;;24.50;22.67;;;;;;;-141.02;65.29;80797.66;5153990;27;20200;-78
2022/08/20 01:39:40;;;;;;;23.23;21.52;;;;;;;-141.02;65.48;81191.75;5153630;27;20195;-78
2022/08/20 01:42:12;;;;;;;23.85;22.15;;;;;;;-141.02;65.46;81172.34;5153625;27;20192;-77
2022/08/20 01:44:43;;;;;;;23.75;22.05;;;;;;;-141.02;65.52;81154.88;5153596;27;20697;-77
2022/08/20 01:47:14;;;;;;;25.23;23.42;;;;;;;-141.02;65.61;81158.75;5153904;27;20184;-77
2022/08/20 01:49:44;;;;;;;23.90;22.20;;;;;;;-141.02;65.49;81183.97;5153887;27;20554;-77
2022/08/20 01:52:16;;;;;;;24.40;22.70;;;;;;;-141.02;65.55;81154.88;5154045;27;20187;-79
2022/08/20 01:54:45;;;;;;;25.17;23.38;;;;;;;-141.02;65.52;81174.28;5153556;27;20184;-78
2022/08/20 01:57:15;;;;;;;24.77;23.08;;;;;;;-141.02;65.72;81178.16;5153414;27;20252;-79
2022/08/20 01:59:45;;;;;;;23.90;22.10;;;;;;;-141.02;65.90;81135.44;5153757;27;20195;-78
2022/08/20 02:02:13;;;;;;;23.85;22.15;;;;;;;-141.02;65.87;81139.34;5153581;27;20191;-79
2022/08/20 02:04:41;;;;;;;23.83;22.13;;;;;;;-141.02;65.84;81205.34;5153727;27;20583;-76
2022/08/20 02:07:14;;;;;;;24.13;22.42;;;;;;;-141.02;66.19;81197.56;5153677;27;20770;-78
2022/08/20 02:09:42;;;;;;;23.65;21.95;;;;;;;-141.02;66.16;81197.56;5153760;27;20188;-77
2022/08/20 02:12:10;;;;;;;23.38;21.67;;;;;;;-141.02;66.56;81183.97;5153347;27;20248;-77
2022/08/20 02:14:42;;;;;;;24.00;22.30;;;;;;;-141.02;66.71;81189.81;5153301;27;20199;-77
2022/08/20 02:17:11;;;;;;;22.98;21.38;;;;;;;-141.02;66.94;81174.28;5153218;27;20235;-76
2022/08/20 02:19:43;;;;;;;23.38;21.75;;;;;;;-141.02;67.20;81226.69;5153330;27;20231;-79
2022/08/20 02:22:18;;;;;;;23.70;22.00;;;;;;;-141.02;67.46;81236.41;5153658;27;20597;-75
2022/08/20 02:24:45;;;;;;;22.83;21.13;;;;;;;-141.02;67.80;81224.75;5153599;27;20604;-80
2022/08/20 02:27:13;;;;;;;22.70;21.10;;;;;;;-141.02;67.82;81232.53;5153446;27;20578;-78
2022/08/20 02:29:40;;;;;;;22.90;21.30;;;;;;;-141.02;68.00;81217.00;5153153;27;20752;-77
2022/08/20 02:32:08;;;;;;;22.30;20.70;;;;;;;-141.02;68.19;81236.41;5153468;27;20279;-81
2022/08/20 02:34:36;;;;;;;22.30;20.70;;;;;;;-141.02;68.30;81222.81;5153497;27;20213;-78
2022/08/20 02:37:06;;;;;;;22.50;20.90;;;;;;;-141.02;68.11;81232.53;5153110;27;20198;-79
2022/08/20 02:39:34;;;;;;;22.75;21.15;;;;;;;-141.02;68.08;81226.69;5153451;27;20213;-76
2022/08/20 02:42:02;;;;;;;22.58;20.98;;;;;;;-141.02;68.35;81236.41;5153355;27;20192;-79
2022/08/20 02:44:31;;;;;;;22.73;21.13;;;;;;;-141.02;68.58;81218.94;5156802;27;20192;-76
2022/08/20 02:46:59;;;;;;;22.38;20.77;;;;;;;-141.02;68.82;81116.03;5157014;27;20223;-76
2022/08/20 02:49:26;;;;;;;22.75;21.15;;;;;;;-141.02;68.86;81273.28;5157044;27;20295;-77
2022/08/20 02:51:54;;;;;;;22.42;20.83;;;;;;;-141.02;68.62;81236.41;5156989;27;20252;-78
2022/08/20 02:54:21;;;;;;;22.70;21.10;;;;;;;-141.02;68.72;81251.94;5156879;27;20669;-78
2022/08/20 02:56:48;;;;;;;22.77;21.17;;;;;;;-141.02;68.47;81224.75;5156846;27;20223;-77
2022/08/20 02:59:15;;;;;;;22.77;21.17;;;;;;;-141.02;68.71;81253.88;5156496;27;20230;-82
2022/08/20 03:01:42;;;;;;;22.55;20.95;;;;;;;-141.02;69.09;81228.63;5156780;27;20268;-77
2022/08/20 03:04:10;;;;;;;22.13;20.52;;;;;;;-141.02;69.45;81277.19;5156685;27;20187;-79
2022/08/20 03:06:37;;;;;;;22.30;20.70;;;;;;;-141.02;69.97;81248.06;5156622;27;20311;-78
2022/08/20 03:09:07;;;;;;;22.90;21.00;;;;;;;-141.02;70.32;81271.34;5156288;27;20191;-77
2022/08/20 03:11:35;;;;;;;22.58;20.98;;;;;;;-141.02;70.50;81267.47;5156514;27;20202;-78
2022/08/20 03:14:02;;;;;;;22.00;20.45;;;;;;;-141.02;70.39;81271.34;5156556;27;20244;-79
2022/08/20 03:16:29;;;;;;;22.52;20.92;;;;;;;-141.02;70.87;81271.34;5155873;27;20314;-76
2022/08/20 03:18:56;;;;;;;22.55;20.95;;;;;;;-141.02;71.03;81281.06;5156243;27;20264;-79
2022/08/20 03:21:23;;;;;;;22.65;21.05;;;;;;;-141.02;71.55;81288.81;5156274;27;20287;-78
2022/08/20 03:23:51;;;;;;;22.67;21.08;;;;;;;-141.02;71.90;81290.78;5155117;27;20196;-80
2022/08/20 03:26:19;;;;;;;22.75;21.15;;;;;;;-141.02;72.28;81265.53;5156226;27;20684;-79
2022/08/20 03:28:46;;;;;;;22.60;21.00;;;;;;;-141.02;72.48;81298.53;5156267;27;20187;-80
2022/08/20 03:31:14;;;;;;;21.45;19.95;;;;;;;-141.02;72.77;81306.31;5156260;27;20191;-81
2022/08/20 03:33:41;;;;;;;21.23;19.75;;;;;;;-141.02;73.21;81277.19;5156145;27;20192;-78
2022/08/20 03:36:09;;;;;;;21.08;19.60;;;;;;;-141.02;73.48;81290.78;5156167;27;20248;-82
2022/08/20 03:38:36;;;;;;;21.30;19.83;;;;;;;-141.02;74.08;81310.19;5156090;27;20191;-78
2022/08/20 03:41:04;;;;;;;21.95;20.30;;;;;;;-141.02;74.35;81288.81;5155255;27;20195;-78
2022/08/20 03:43:34;;;;;;;21.15;19.65;;;;;;;-141.02;74.17;82314.13;5155924;27;20287;-77
2022/08/20 03:46:01;;;;;;;21.27;19.88;;;;;;;-141.02;74.57;81314.06;5155762;27;20229;-82
2022/08/20 03:48:29;;;;;;;21.13;19.73;;;;;;;-141.02;74.66;81251.94;5155544;27;20234;-77
2022/08/20 03:50:59;;;;;;;21.08;19.67;;;;;;;-141.02;75.21;81296.59;5155827;27;20231;-77
2022/08/20 03:53:30;;;;;;;20.95;19.55;;;;;;;-141.02;74.77;81116.03;5156066;27;20206;-80
2022/08/20 03:55:59;;;;;;;20.73;19.42;;;;;;;-141.02;74.66;81267.47;5155285;27;20184;-78
2022/08/20 03:58:28;;;;;;;20.65;19.25;;;;;;;-141.02;74.51;81273.28;5155723;27;20191;-79
2022/08/20 04:00:57;;;;;;;20.67;19.27;;;;;;;-141.02;74.37;81261.66;5156162;27;20202;-78
2022/08/20 04:03:24;;;;;;;20.77;19.38;;;;;;;-141.02;74.16;81263.59;5155481;27;20275;-78
2022/08/20 04:05:52;;;;;;;21.27;19.88;;;;;;;-141.02;73.91;81228.63;5155153;27;20226;-81
2022/08/20 04:08:26;;;;;;;21.08;19.67;;;;;;;-141.02;73.59;81228.63;5155383;27;20238;-77
2022/08/20 04:10:56;;;;;;;20.92;19.52;;;;;;;-141.02;73.54;81240.28;5155101;27;20532;-79
2022/08/20 04:13:25;;;;;;;20.70;19.40;;;;;;;-141.02;73.41;81215.06;5155259;27;20202;-81
2022/08/20 04:15:54;;;;;;;21.13;19.73;;;;;;;-141.02;73.26;81038.38;5155363;27;20191;-76
2022/08/20 04:18:24;;;;;;;20.98;19.58;;;;;;;-141.02;72.93;81195.63;5155228;27;20318;-77
2022/08/20 04:20:52;;;;;;;22.20;20.80;;;;;;;-141.02;72.70;81197.56;5155273;27;20183;-78
2022/08/20 04:23:21;;;;;;;20.90;19.50;;;;;;;-141.02;72.86;81213.09;5154895;27;20750;-77
2022/08/20 04:25:48;;;;;;;21.42;19.92;;;;;;;-141.02;72.81;81209.22;5155004;27;20227;-79
2022/08/20 04:28:23;;;;;;;21.08;19.65;;;;;;;-141.02;72.73;81201.47;5155895;27;20199;-82
2022/08/20 04:30:51;;;;;;;20.85;19.45;;;;;;;-141.02;72.70;81178.16;5154736;27;20191;-79
2022/08/20 04:33:18;;;;;;;20.88;19.48;;;;;;;-141.02;73.81;81220.88;5154890;27;20196;-76
2022/08/20 04:35:46;;;;;;;21.95;20.15;;;;;;;-141.02;74.98;81240.28;5154869;27;20244;-76
2022/08/20 04:38:17;;;;;;;20.80;19.40;;;;;;;-141.02;76.38;81228.63;5154860;27;20192;-79
2022/08/20 04:40:54;;;;;;;20.38;19.05;;;;;;;-141.02;76.22;81232.53;5154521;27;20644;-78
2022/08/20 04:43:22;;;;;;;20.38;19.02;;;;;;;-141.02;75.53;81244.16;5154826;27;20183;-82
2022/08/20 04:45:50;;;;;;;20.80;19.50;;;;;;;-141.02;74.38;81236.41;5154593;27;20221;-76
2022/08/20 04:48:19;;;;;;;20.13;18.83;;;;;;;-141.02;73.93;81201.47;5154402;27;20206;-81
2022/08/20 04:50:47;;;;;;;19.90;18.60;;;;;;;-141.02;73.04;81141.28;5154312;27;20192;-76
2022/08/20 04:53:17;;;;;;;19.65;18.35;;;;;;;-141.02;71.87;81143.22;5154593;27;20223;-80
2022/08/20 04:55:47;;;;;;;19.60;18.30;;;;;;;-141.02;70.78;81150.97;5154212;27;20577;-79
2022/08/20 04:58:17;;;;;;;19.52;18.33;;;;;;;-141.02;70.80;81094.69;5154510;27;20191;-81
2022/08/20 05:00:47;;;;;;;20.25;18.85;;;;;;;-141.02;70.75;81092.75;5154190;27;20564;-81
2022/08/20 05:03:15;;;;;;;20.45;19.05;;;;;;;-141.02;70.54;82112.16;5154126;27;20249;-77
2022/08/20 05:05:43;;;;;;;21.88;20.30;;;;;;;-141.02;70.10;81108.28;5153537;27;20188;-80
2022/08/20 05:08:13;;;;;;;20.73;19.23;;;;;;;-141.02;70.77;82203.44;5153793;27;20227;-76
2022/08/20 05:10:41;;;;;;;20.92;19.42;;;;;;;-141.02;70.25;81104.38;5154301;27;20689;-77
2022/08/20 05:13:09;;;;;;;20.55;19.15;;;;;;;-141.02;69.61;81104.38;5153975;27;20658;-81
2022/08/20 05:15:37;;;;;;;20.40;19.00;;;;;;;-141.02;69.16;81057.78;5154508;27;20195;-80
2022/08/20 05:18:06;;;;;;;20.27;18.88;;;;;;;-141.02;68.28;81015.06;5153721;27;20231;-80
2022/08/20 05:20:38;;;;;;;20.13;18.73;;;;;;;-141.02;68.07;81034.50;5153844;27;20231;-80
2022/08/20 05:23:07;;;;;;;20.00;18.60;;;;;;;-141.02;68.01;81011.19;5154241;27;20184;-78
2022/08/20 05:25:36;;;;;;;20.23;18.83;;;;;;;-141.02;67.71;81018.97;5154115;27;20199;-76
2022/08/20 05:28:08;;;;;;;20.25;18.85;;;;;;;-141.02;68.21;81040.31;5153646;27;20679;-79
2022/08/20 05:30:36;;;;;;;20.40;19.00;;;;;;;-141.02;68.14;81034.50;5153776;27;20279;-78
2022/08/20 05:33:04;;;;;;;20.25;18.85;;;;;;;-141.02;68.17;81026.72;5153724;27;20714;-76
2022/08/20 05:35:34;;;;;;;20.48;19.08;;;;;;;-141.02;68.94;81061.66;5153714;27;20193;-76
2022/08/20 05:38:02;;;;;;;20.35;18.95;;;;;;;-141.02;67.77;81044.19;5153631;27;20653;-76
2022/08/20 05:40:29;;;;;;;20.60;19.10;;;;;;;-141.02;67.49;81020.91;5153993;27;20196;-80
2022/08/20 05:42:57;;;;;;;20.45;19.05;;;;;;;-141.02;67.53;81003.44;5153579;27;20199;-81
2022/08/20 05:45:24;;;;;;;20.27;18.88;;;;;;;-141.02;67.22;81011.19;5153964;27;20621;-77
2022/08/20 05:47:51;;;;;;;20.65;19.25;;;;;;;-141.02;66.54;80982.06;5153436;27;20227;-76
2022/08/20 05:50:19;;;;;;;19.70;18.40;;;;;;;-141.02;66.44;80952.94;5153868;27;20274;-80
2022/08/20 05:52:46;;;;;;;20.25;18.85;;;;;;;-141.02;66.50;80960.72;5153818;27;20195;-78
2022/08/20 05:55:13;;;;;;;20.30;18.90;;;;;;;-141.02;65.99;80968.47;5153782;27;20223;-77
2022/08/20 05:57:41;;;;;;;20.38;18.98;;;;;;;-141.02;65.62;80964.59;5153810;27;20187;-76
2022/08/20 06:00:13;;;;;;;20.10;18.70;;;;;;;-141.02;65.21;80949.06;5153463;27;20198;-79
2022/08/20 06:05:25;;;;;;;20.17;18.77;;;;;;;-141.02;64.92;80945.19;5154073;27;20320;-77
2022/08/20 06:07:53;;;;;;;20.90;19.50;;;;;;;-141.02;64.97;80945.19;5153310;27;20271;-78
2022/08/20 06:10:20;;;;;;;20.95;19.45;;;;;;;-141.02;64.94;80949.06;5153938;27;20192;-77
2022/08/20 06:12:47;;;;;;;20.30;18.90;;;;;;;-141.02;64.69;80886.94;5153740;27;20230;-81
2022/08/20 06:15:16;;;;;;;20.20;18.80;;;;;;;-141.02;64.13;80865.59;5153527;27;20283;-77
2022/08/20 06:17:43;;;;;;;19.88;18.48;;;;;;;-141.02;64.01;80855.88;5154471;27;20417;-77
2022/08/20 06:20:11;;;;;;;20.23;18.73;;;;;;;-141.02;63.39;80838.41;5157618;27;20263;-76
2022/08/20 06:22:38;;;;;;;20.42;18.92;;;;;;;-141.02;63.29;80836.47;5157208;27;20194;-76
2022/08/20 06:25:07;;;;;;;20.65;19.15;;;;;;;-141.02;62.88;80807.34;5157197;27;20283;-80
2022/08/20 06:27:37;;;;;;;20.27;18.77;;;;;;;-141.02;62.47;80819.00;5157050;27;20272;-79
2022/08/20 06:30:05;;;;;;;20.98;19.48;;;;;;;-141.02;62.79;80813.19;5157188;27;20196;-77
2022/08/20 06:32:34;;;;;;;20.98;19.48;;;;;;;-141.02;62.81;80809.28;5157589;27;20242;-82
2022/08/20 06:35:02;;;;;;;20.92;19.42;;;;;;;-141.02;62.18;80805.41;5156991;27;20283;-77
2022/08/20 06:37:30;;;;;;;20.40;18.90;;;;;;;-141.02;62.20;80784.06;5156996;27;20730;-78
2022/08/20 06:40:01;;;;;;;20.33;18.92;;;;;;;-141.02;61.48;80756.88;5157065;27;20560;-79
2022/08/20 06:42:28;;;;;;;20.42;19.00;;;;;;;-141.02;61.76;80681.19;5156919;27;20194;-76
2022/08/20 06:44:58;;;;;;;20.02;18.58;;;;;;;-141.02;61.62;80782.13;5156730;27;20202;-80
2022/08/20 06:47:25;;;;;;;20.27;18.88;;;;;;;-141.02;61.39;80774.34;5156983;27;20223;-78
2022/08/20 06:49:53;;;;;;;19.85;18.48;;;;;;;-141.02;61.14;80772.41;5157010;27;20199;-78
2022/08/20 06:52:21;;;;;;;19.70;18.40;;;;;;;-141.02;61.67;80774.34;5156953;27;20199;-78
2022/08/20 06:54:48;;;;;;;20.55;19.15;;;;;;;-141.02;60.62;80489.00;5156931;27;20203;-82
2022/08/20 06:57:16;;;;;;;20.60;19.20;;;;;;;-141.02;60.44;80714.16;5157179;27;20264;-77
2022/08/20 06:59:43;;;;;;;20.90;19.45;;;;;;;-141.02;60.79;80760.75;5156967;27;20209;-77
2022/08/20 07:02:10;;;;;;;21.20;19.80;;;;;;;-141.02;60.59;80720.00;5156817;27;20322;-78
2022/08/20 07:04:37;;;;;;;20.85;19.45;;;;;;;-141.02;60.34;80725.81;5156790;27;20239;-76
2022/08/20 07:07:06;;;;;;;21.45;20.00;;;;;;;-141.02;59.46;80708.34;5156588;27;20223;-75
2022/08/20 07:09:33;;;;;;;32.65;22.27;;;;;;;-141.02;60.29;80712.22;5156583;27;20308;-78
2022/08/20 07:12:00;;;;;;;24.15;22.55;;;;;;;-141.02;59.23;80667.59;5156627;27;20196;-79
2022/08/20 07:14:27;;;;;;;22.90;21.40;;;;;;;-141.02;59.29;80654.00;5156441;27;20700;-77
2022/08/20 07:16:54;;;;;;;22.25;20.75;;;;;;;-141.02;58.72;80636.53;5156049;27;20267;-78
2022/08/20 07:19:21;;;;;;;22.55;21.05;;;;;;;-141.02;58.27;80650.13;5156196;27;20192;-78
2022/08/20 07:21:49;;;;;;;21.23;19.83;;;;;;;-141.02;58.50;80638.47;5156426;27;20192;-78
2022/08/20 07:24:18;;;;;;;20.73;19.33;;;;;;;-141.02;57.93;80588.00;5156086;27;20234;-77
2022/08/20 07:26:45;;;;;;;20.73;19.33;;;;;;;-141.02;57.23;80576.34;5156336;27;20328;-76
2022/08/20 07:29:12;;;;;;;20.98;19.58;;;;;;;-141.02;57.46;80586.06;5155695;27;20256;-77
2022/08/20 07:34:22;;;;;;;21.40;20.00;;;;;;;-141.02;57.29;80516.16;5134394;27;20551;-76
2022/08/20 07:36:50;;;;;;;21.52;20.13;;;;;;;-141.02;56.64;80510.34;5156085;27;20279;-75
2022/08/20 07:39:19;;;;;;;22.73;21.23;;;;;;;-141.02;56.26;80440.47;5155782;27;20661;-80
2022/08/20 07:42:01;;;;;;;22.08;20.58;;;;;;;-141.02;56.36;80502.59;5155650;27;20195;-76
2022/08/20 07:44:29;;;;;;;21.50;20.00;;;;;;;-141.02;55.96;80494.81;5155993;27;20270;-77
2022/08/20 07:46:58;;;;;;;21.88;20.38;;;;;;;-141.02;55.53;80432.72;5155488;27;20223;-75
2022/08/20 07:49:25;;;;;;;22.17;20.67;;;;;;;-141.02;55.98;80424.94;5155913;27;20262;-81
2022/08/20 07:51:52;;;;;;;20.52;19.13;;;;;;;-141.02;57.08;80553.06;5155872;27;20199;-76
2022/08/20 07:54:20;;;;;;;20.88;19.48;;;;;;;-141.02;56.51;80518.13;5155772;27;20199;-77
2022/08/20 07:56:47;;;;;;;19.85;18.45;;;;;;;-141.02;56.24;80475.41;5155792;27;20291;-78
2022/08/20 07:59:14;;;;;;;21.50;20.00;;;;;;;-141.02;56.47;80510.34;5155669;27;20223;-78
2022/08/20 08:01:41;;;;;;;21.90;20.50;;;;;;;-141.02;56.74;80508.41;5155410;27;20239;-78
2022/08/20 08:04:08;;;;;;;21.17;19.77;;;;;;;-141.02;56.04;80463.75;5155565;27;20188;-77
2022/08/20 08:06:35;;;;;;;19.55;18.15;;;;;;;-141.02;54.24;80423.00;5155282;27;20234;-79
2022/08/20 08:09:06;;;;;;;19.58;18.17;;;;;;;-141.02;54.18;80366.72;5155618;27;20252;-77
2022/08/20 08:11:38;;;;;;;19.40;18.10;;;;;;;-141.02;53.64;80374.47;5155475;27;20248;-80
2022/08/20 08:14:08;;;;;;;19.90;18.60;;;;;;;-141.02;53.34;80351.19;5155565;27;20191;-75
2022/08/20 08:16:36;;;;;;;19.65;18.35;;;;;;;-141.02;53.53;80347.28;5155959;27;20242;-79
2022/08/20 08:19:06;;;;;;;19.70;18.35;;;;;;;-141.02;53.71;80327.88;5155391;27;20276;-73
2022/08/20 08:21:33;;;;;;;19.75;18.45;;;;;;;-141.02;52.76;80285.19;5155452;27;20184;-76
2022/08/20 08:24:01;;;;;;;19.48;18.17;;;;;;;-141.02;53.72;80355.06;5155397;27;20191;-74
2022/08/20 08:26:28;;;;;;;19.55;18.25;;;;;;;-141.02;54.04;80362.81;5155212;27;20192;-75
2022/08/20 08:28:58;;;;;;;19.27;17.98;;;;;;;-141.02;54.02;80347.28;5154945;27;20603;-74
2022/08/20 08:31:25;;;;;;;20.15;18.75;;;;;;;-141.02;53.38;80289.06;5154764;27;20616;-72
2022/08/20 08:33:52;;;;;;;19.90;18.60;;;;;;;-141.02;52.96;80285.19;5154708;27;20192;-75
2022/08/20 08:36:19;;;;;;;20.15;18.85;;;;;;;-141.02;52.47;80192.03;5154868;27;20227;-74
2022/08/20 08:38:47;;;;;;;19.80;18.50;;;;;;;-141.02;52.14;80219.19;5155422;27;20223;-75
2022/08/20 08:41:19;;;;;;;19.83;18.52;;;;;;;-141.02;52.27;80079.44;5154501;27;20662;-76
2022/08/20 08:43:49;;;;;;;19.95;18.65;;;;;;;-141.02;51.76;80131.84;5154622;27;20188;-72
2022/08/20 08:46:22;;;;;;;19.77;18.48;;;;;;;-141.02;51.68;80172.59;5154416;27;20192;-72
2022/08/20 08:48:53;;;;;;;19.88;18.58;;;;;;;-141.02;51.70;80188.13;5154750;27;20235;-74
2022/08/20 08:51:32;;;;;;;20.38;18.98;;;;;;;-141.02;51.14;80143.50;5154789;27;20187;-75
2022/08/20 08:54:01;;;;;;;20.25;18.85;;;;;;;-141.02;51.22;80083.31;5154369;27;20240;-75
2022/08/20 08:56:30;;;;;;;19.80;18.40;;;;;;;-141.02;50.68;80015.41;5154217;27;20193;-74
2022/08/20 08:59:00;;;;;;;19.88;18.50;;;;;;;-141.02;50.42;80106.63;5154711;27;20192;-75
2022/08/20 09:01:31;;;;;;;30.00;27.75;;;;;;;-141.02;50.38;80102.75;5154850;27;20278;-74
2022/08/20 09:03:59;;;;;;;19.95;18.65;;;;;;;-141.02;50.40;80067.81;5154447;27;20253;-74
2022/08/20 09:06:27;;;;;;;20.55;19.15;;;;;;;-141.02;50.59;80060.03;5154565;27;20271;-76
2022/08/20 09:08:59;;;;;;;21.42;20.02;;;;;;;-141.02;50.03;80075.56;5154118;27;20220;-73
2022/08/20 09:11:28;;;;;;;20.65;19.35;;;;;;;-141.02;50.18;80038.69;5154026;27;20202;-74
2022/08/20 09:13:56;;;;;;;19.98;18.58;;;;;;;-141.02;49.81;79869.84;5154320;27;20196;-74
2022/08/20 09:16:24;;;;;;;20.20;18.80;;;;;;;-141.02;50.29;80071.69;5154166;27;20203;-75
2022/08/20 09:18:53;;;;;;;19.65;18.35;;;;;;;-141.02;50.61;80127.97;5153915;27;20199;-73
2022/08/20 09:21:21;;;;;;;20.17;18.85;;;;;;;-141.02;49.91;80067.81;5154569;27;20255;-75
2022/08/20 09:23:48;;;;;;;20.55;19.17;;;;;;;-141.02;50.06;80021.22;5154190;27;20278;-75
2022/08/20 09:26:15;;;;;;;20.70;19.30;;;;;;;-141.02;50.06;80040.63;5154109;27;20223;-74
2022/08/20 09:28:42;;;;;;;20.65;19.33;;;;;;;-141.02;48.99;79994.03;5153726;27;20267;-73
2022/08/20 09:31:09;;;;;;;20.90;19.50;;;;;;;-141.02;49.31;80060.03;5154225;27;20227;-73
2022/08/20 09:33:36;;;;;;;20.50;19.10;;;;;;;-141.02;48.91;79997.94;5153695;27;20283;-73
2022/08/20 09:36:05;;;;;;;21.25;19.85;;;;;;;-141.02;49.03;79961.06;5154242;27;20646;-75
2022/08/20 09:38:32;;;;;;;21.00;19.60;;;;;;;-141.02;48.43;79908.66;5153617;27;20713;-75
2022/08/20 09:40:59;;;;;;;21.25;19.85;;;;;;;-141.02;48.38;79939.72;5153992;27;20721;-76
2022/08/20 09:43:27;;;;;;;21.25;19.85;;;;;;;-141.02;47.88;79928.06;5154135;27;20279;-73
2022/08/20 09:45:54;;;;;;;21.20;19.80;;;;;;;-141.02;48.06;79947.47;5153879;27;20196;-73
2022/08/20 09:48:21;;;;;;;20.65;19.25;;;;;;;-141.02;47.83;79877.59;5153991;27;20265;-77
2022/08/20 09:50:49;;;;;;;21.38;19.98;;;;;;;-141.02;48.50;80001.81;5153558;27;20279;-76
2022/08/20 09:53:19;;;;;;;20.92;19.52;;;;;;;-141.02;48.24;79994.03;5155929;27;20689;-73
2022/08/20 09:55:50;;;;;;;20.52;19.20;;;;;;;-141.02;47.57;79854.31;5157775;27;20736;-72
2022/08/20 09:58:22;;;;;;;20.13;18.83;;;;;;;-141.02;46.68;79714.59;5158194;27;20274;-77
2022/08/20 10:00:49;;;;;;;20.52;19.13;;;;;;;-141.02;46.76;79761.16;5158015;27;20278;-73
2022/08/20 10:03:17;;;;;;;20.33;19.02;;;;;;;-141.02;46.44;79796.09;5157742;27;20283;-73
2022/08/20 10:05:44;;;;;;;20.10;18.80;;;;;;;-141.02;46.88;79798.03;5157598;27;20653;-73
2022/08/20 10:08:12;;;;;;;20.02;18.73;;;;;;;-141.02;45.50;79701.00;5157725;27;20223;-75
2022/08/20 10:10:41;;;;;;;20.17;18.88;;;;;;;-141.02;45.51;79741.75;5157502;27;20202;-76
2022/08/20 10:13:08;;;;;;;20.38;19.02;;;;;;;-141.02;45.54;79683.53;5157721;27;20279;-74
2022/08/20 10:15:34;;;;;;;21.17;19.77;;;;;;;-141.02;46.05;79737.88;5157416;27;20287;-74
2022/08/20 10:18:06;;;;;;;22.45;20.95;;;;;;;-141.02;45.77;79691.28;5157128;27;20326;-78
2022/08/20 10:20:34;;;;;;;21.52;20.13;;;;;;;-141.02;45.00;79629.19;5157655;27;20184;-78
2022/08/20 10:23:01;;;;;;;21.88;20.48;;;;;;;-141.02;45.05;79619.50;5157373;27;20592;-73
2022/08/20 10:25:28;;;;;;;21.63;20.23;;;;;;;-141.02;45.35;79483.66;5157469;27;20274;-73
2022/08/20 10:27:57;;;;;;;22.02;20.60;;;;;;;-141.02;45.22;79724.28;5157077;27;20259;-79
2022/08/20 10:30:25;;;;;;;22.25;20.75;;;;;;;-141.02;45.05;79652.47;5157080;27;20657;-73
2022/08/20 10:32:52;;;;;;;21.80;20.30;;;;;;;-141.02;46.03;79803.84;5157025;27;20286;-79
2022/08/20 10:35:19;;;;;;;21.33;19.92;;;;;;;-141.02;45.80;79753.41;5157098;27;20594;-74
2022/08/20 10:37:46;;;;;;;21.35;19.95;;;;;;;-141.02;46.03;79842.66;5157571;27;20234;-73
2022/08/20 10:40:14;;;;;;;22.00;20.60;;;;;;;-141.02;46.14;79811.63;5156922;27;20677;-74
2022/08/20 10:42:41;;;;;;;21.42;20.02;;;;;;;-141.02;46.02;79768.91;5156803;27;20227;-73
2022/08/20 10:45:10;;;;;;;22.15;20.75;;;;;;;-141.02;45.60;79788.31;5156807;27;20202;-73
2022/08/20 10:47:38;;;;;;;21.65;20.25;;;;;;;-141.02;45.66;79782.50;5157131;27;20234;-79
2022/08/20 10:50:08;;;;;;;21.80;20.40;;;;;;;-141.02;46.40;79547.69;5156827;27;20287;-71
2022/08/20 10:52:36;;;;;;;21.98;20.58;;;;;;;-141.02;45.88;79807.72;5156979;27;20227;-73
2022/08/20 10:55:04;;;;;;;21.08;19.67;;;;;;;-141.02;45.59;79807.72;5156894;27;20234;-73
2022/08/20 10:57:32;;;;;;;21.33;19.92;;;;;;;-141.02;44.53;79728.16;5156878;27;20192;-75
2022/08/20 11:00:00;;;;;;;21.80;20.30;;;;;;;-141.02;45.25;79792.22;5156732;27;20203;-73
2022/08/20 11:02:28;;;;;;;21.13;19.73;;;;;;;-141.02;44.41;79644.72;5156735;27;20187;-77
2022/08/20 11:04:56;;;;;;;21.23;19.83;;;;;;;-141.02;42.56;79508.88;5155154;27;20660;-73
2022/08/20 11:07:27;;;;;;;20.85;19.45;;;;;;;-141.02;42.41;79505.00;5156384;27;20613;-77
2022/08/20 11:09:54;;;;;;;21.30;19.90;;;;;;;-141.02;42.77;79505.00;5156646;27;20215;-73
2022/08/20 11:12:22;;;;;;;20.85;19.55;;;;;;;-141.02;43.58;79561.28;5156540;27;20225;-74